sensor_id;sensor_type;location;lat;lon;timestamp;P1;P2;P0
51320;PMS5003;38732;49.556;6.286;2022-08-21T00:01:55;7.75;5.25;4.00
51320;PMS5003;38732;49.556;6.286;2022-08-21T00:04:24;8.50;8.00;5.00
51320;PMS5003;38732;49.556;6.286;2022-08-21T00:06:52;9.50;8.50;5.00
51320;PMS5003;38732;49.556;6.286;2022-08-21T00:09:21;9.00;8.00;4.25
51320;PMS5003;38732;49.556;6.286;2022-08-21T00:11:49;6.00;6.00;3.50
51320;PMS5003;38732;49.556;6.286;2022-08-21T00:14:17;7.50;7.50;4.00
51320;PMS5003;38732;49.556;6.286;2022-08-21T00:16:45;9.75;8.75;5.00
51320;PMS5003;38732;49.556;6.286;2022-08-21T00:19:14;7.25;6.50;4.00
51320;PMS5003;38732;49.556;6.286;2022-08-21T00:21:42;5.00;5.00;4.50
51320;PMS5003;38732;49.556;6.286;2022-08-21T00:24:11;8.25;5.75;4.00
51320;PMS5003;38732;49.556;6.286;2022-08-21T00:26:39;8.75;8.75;3.75
51320;PMS5003;38732;49.556;6.286;2022-08-21T00:29:07;6.25;5.75;4.00
51320;PMS5003;38732;49.556;6.286;2022-08-21T00:31:36;9.00;8.75;4.50
51320;PMS5003;38732;49.556;6.286;2022-08-21T00:34:05;11.25;8.75;6.00
51320;PMS5003;38732;49.556;6.286;2022-08-21T00:36:34;7.25;7.25;4.00
51320;PMS5003;38732;49.556;6.286;2022-08-21T00:39:04;6.40;6.40;4.00
51320;PMS5003;38732;49.556;6.286;2022-08-21T00:41:35;8.80;7.80;5.00
51320;PMS5003;38732;49.556;6.286;2022-08-21T00:44:07;6.60;5.80;4.00
51320;PMS5003;38732;49.556;6.286;2022-08-21T00:46:37;2.00;2.00;2.00
51320;PMS5003;38732;49.556;6.286;2022-08-21T00:49:08;8.80;6.00;3.40
51320;PMS5003;38732;49.556;6.286;2022-08-21T00:51:42;9.20;7.60;5.00
51320;PMS5003;38732;49.556;6.286;2022-08-21T00:54:17;8.20;7.00;4.00
51320;PMS5003;38732;49.556;6.286;2022-08-21T00:56:49;8.60;8.60;3.40
51320;PMS5003;38732;49.556;6.286;2022-08-21T00:59:21;7.40;7.40;4.20
51320;PMS5003;38732;49.556;6.286;2022-08-21T01:01:51;6.80;6.80;3.00
51320;PMS5003;38732;49.556;6.286;2022-08-21T01:04:20;7.75;5.75;4.00
51320;PMS5003;38732;49.556;6.286;2022-08-21T01:06:48;4.60;4.00;3.00
51320;PMS5003;38732;49.556;6.286;2022-08-21T01:09:17;7.75;7.75;4.00
51320;PMS5003;38732;49.556;6.286;2022-08-21T01:11:46;8.00;8.00;4.50
51320;PMS5003;38732;49.556;6.286;2022-08-21T01:14:15;9.80;7.80;4.00
51320;PMS5003;38732;49.556;6.286;2022-08-21T01:16:45;9.75;8.00;4.00
51320;PMS5003;38732;49.556;6.286;2022-08-21T01:19:15;11.20;8.00;4.80
51320;PMS5003;38732;49.556;6.286;2022-08-21T01:21:45;8.60;8.40;5.00
51320;PMS5003;38732;49.556;6.286;2022-08-21T01:24:13;8.25;7.75;4.50
51320;PMS5003;38732;49.556;6.286;2022-08-21T01:26:43;8.75;8.00;5.00
51320;PMS5003;38732;49.556;6.286;2022-08-21T01:29:14;6.60;5.00;4.00
51320;PMS5003;38732;49.556;6.286;2022-08-21T01:31:50;11.40;8.60;4.80
51320;PMS5003;38732;49.556;6.286;2022-08-21T01:34:18;6.50;6.50;4.00
51320;PMS5003;38732;49.556;6.286;2022-08-21T01:36:47;8.50;8.00;4.50
51320;PMS5003;38732;49.556;6.286;2022-08-21T01:39:15;4.75;4.00;4.00
51320;PMS5003;38732;49.556;6.286;2022-08-21T01:41:44;6.25;5.75;3.00
51320;PMS5003;38732;49.556;6.286;2022-08-21T01:44:12;6.50;6.50;4.25
51320;PMS5003;38732;49.556;6.286;2022-08-21T01:46:41;8.50;8.00;4.50
51320;PMS5003;38732;49.556;6.286;2022-08-21T01:49:09;7.25;7.25;5.00
51320;PMS5003;38732;49.556;6.286;2022-08-21T01:51:37;8.75;7.00;4.75
51320;PMS5003;38732;49.556;6.286;2022-08-21T01:54:06;7.00;4.00;2.00
51320;PMS5003;38732;49.556;6.286;2022-08-21T01:56:42;5.00;3.00;2.00
51320;PMS5003;38732;49.556;6.286;2022-08-21T01:59:13;9.00;9.00;6.60
51320;PMS5003;38732;49.556;6.286;2022-08-21T02:01:41;8.25;8.25;5.50
51320;PMS5003;38732;49.556;6.286;2022-08-21T02:04:10;7.75;7.75;6.00
51320;PMS5003;38732;49.556;6.286;2022-08-21T02:06:39;8.50;8.50;6.00
51320;PMS5003;38732;49.556;6.286;2022-08-21T02:09:08;8.00;7.50;3.75
51320;PMS5003;38732;49.556;6.286;2022-08-21T02:11:39;7.60;7.20;3.80
51320;PMS5003;38732;49.556;6.286;2022-08-21T02:14:10;9.80;8.40;6.00
51320;PMS5003;38732;49.556;6.286;2022-08-21T02:16:40;6.60;3.20;2.00
51320;PMS5003;38732;49.556;6.286;2022-08-21T02:19:10;9.00;9.00;4.00
51320;PMS5003;38732;49.556;6.286;2022-08-21T02:21:40;9.20;9.20;5.00
51320;PMS5003;38732;49.556;6.286;2022-08-21T02:24:10;11.25;9.00;5.25
51320;PMS5003;38732;49.556;6.286;2022-08-21T02:26:39;7.00;7.00;4.00
51320;PMS5003;38732;49.556;6.286;2022-08-21T02:29:07;8.00;8.00;4.00
51320;PMS5003;38732;49.556;6.286;2022-08-21T02:31:36;11.00;8.25;6.00
51320;PMS5003;38732;49.556;6.286;2022-08-21T02:34:04;8.00;8.00;5.25
51320;PMS5003;38732;49.556;6.286;2022-08-21T02:36:32;8.25;8.25;6.50
51320;PMS5003;38732;49.556;6.286;2022-08-21T02:39:00;11.25;9.00;7.00
51320;PMS5003;38732;49.556;6.286;2022-08-21T02:41:29;8.25;8.25;5.50
51320;PMS5003;38732;49.556;6.286;2022-08-21T02:43:57;12.50;8.25;6.00
51320;PMS5003;38732;49.556;6.286;2022-08-21T02:46:25;11.25;8.25;5.25
51320;PMS5003;38732;49.556;6.286;2022-08-21T02:48:53;10.00;8.50;6.00
51320;PMS5003;38732;49.556;6.286;2022-08-21T02:51:22;8.75;8.00;4.00
51320;PMS5003;38732;49.556;6.286;2022-08-21T02:53:50;10.25;10.25;6.00
51320;PMS5003;38732;49.556;6.286;2022-08-21T02:56:19;9.50;9.50;7.00
51320;PMS5003;38732;49.556;6.286;2022-08-21T02:58:50;9.60;9.60;6.80
51320;PMS5003;38732;49.556;6.286;2022-08-21T03:01:19;6.40;6.40;3.60
51320;PMS5003;38732;49.556;6.286;2022-08-21T03:03:48;10.00;8.50;6.00
51320;PMS5003;38732;49.556;6.286;2022-08-21T03:06:17;12.00;8.00;6.75
51320;PMS5003;38732;49.556;6.286;2022-08-21T03:08:46;9.80;9.00;7.00
51320;PMS5003;38732;49.556;6.286;2022-08-21T03:11:15;12.50;10.25;7.00
51320;PMS5003;38732;49.556;6.286;2022-08-21T03:13:43;12.25;8.00;6.50
51320;PMS5003;38732;49.556;6.286;2022-08-21T03:16:12;8.25;8.25;6.00
51320;PMS5003;38732;49.556;6.286;2022-08-21T03:18:40;8.25;8.25;4.50
51320;PMS5003;38732;49.556;6.286;2022-08-21T03:21:08;9.50;9.50;7.25
51320;PMS5003;38732;49.556;6.286;2022-08-21T03:23:36;9.50;8.00;3.25
51320;PMS5003;38732;49.556;6.286;2022-08-21T03:26:05;8.75;6.50;3.50
51320;PMS5003;38732;49.556;6.286;2022-08-21T03:28:34;14.60;10.00;6.20
51320;PMS5003;38732;49.556;6.286;2022-08-21T03:31:02;7.75;7.50;4.50
51320;PMS5003;38732;49.556;6.286;2022-08-21T03:33:30;8.75;8.00;6.00
51320;PMS5003;38732;49.556;6.286;2022-08-21T03:36:04;7.75;7.75;6.00
51320;PMS5003;38732;49.556;6.286;2022-08-21T03:38:34;10.20;10.00;7.00
51320;PMS5003;38732;49.556;6.286;2022-08-21T03:41:04;10.80;9.40;6.40
51320;PMS5003;38732;49.556;6.286;2022-08-21T03:43:34;12.40;9.20;6.00
51320;PMS5003;38732;49.556;6.286;2022-08-21T03:46:04;7.00;7.00;4.40
51320;PMS5003;38732;49.556;6.286;2022-08-21T03:48:34;11.00;9.00;7.00
51320;PMS5003;38732;49.556;6.286;2022-08-21T03:51:04;11.60;10.00;6.40
51320;PMS5003;38732;49.556;6.286;2022-08-21T03:53:33;8.60;8.00;6.00
51320;PMS5003;38732;49.556;6.286;2022-08-21T03:56:02;11.25;10.00;7.00
51320;PMS5003;38732;49.556;6.286;2022-08-21T03:58:31;14.00;11.00;7.00
51320;PMS5003;38732;49.556;6.286;2022-08-21T04:00:59;10.50;10.50;6.00
51320;PMS5003;38732;49.556;6.286;2022-08-21T04:03:29;11.80;9.00;6.80
51320;PMS5003;38732;49.556;6.286;2022-08-21T04:05:57;9.00;8.00;6.00
51320;PMS5003;38732;49.556;6.286;2022-08-21T04:08:25;11.25;8.50;6.25
51320;PMS5003;38732;49.556;6.286;2022-08-21T04:10:54;10.00;10.00;6.00
51320;PMS5003;38732;49.556;6.286;2022-08-21T04:13:24;9.20;9.20;7.00
51320;PMS5003;38732;49.556;6.286;2022-08-21T04:15:54;13.00;11.40;6.00
51320;PMS5003;38732;49.556;6.286;2022-08-21T04:18:24;4.20;4.20;4.20
51320;PMS5003;38732;49.556;6.286;2022-08-21T04:20:52;10.50;8.75;6.25
51320;PMS5003;38732;49.556;6.286;2022-08-21T04:23:22;8.80;8.40;6.20
51320;PMS5003;38732;49.556;6.286;2022-08-21T04:25:51;10.50;10.50;6.00
51320;PMS5003;38732;49.556;6.286;2022-08-21T04:28:21;11.40;8.80;7.00
51320;PMS5003;38732;49.556;6.286;2022-08-21T04:30:51;12.00;9.60;7.60
51320;PMS5003;38732;49.556;6.286;2022-08-21T04:33:21;8.40;8.40;7.00
51320;PMS5003;38732;49.556;6.286;2022-08-21T04:35:49;10.80;10.80;7.40
51320;PMS5003;38732;49.556;6.286;2022-08-21T04:38:18;11.00;9.00;6.00
51320;PMS5003;38732;49.556;6.286;2022-08-21T04:40:47;14.00;10.50;7.00
51320;PMS5003;38732;49.556;6.286;2022-08-21T04:43:17;11.20;10.20;6.80
51320;PMS5003;38732;49.556;6.286;2022-08-21T04:45:46;13.80;12.60;8.00
51320;PMS5003;38732;49.556;6.286;2022-08-21T04:48:18;11.80;11.80;6.80
51320;PMS5003;38732;49.556;6.286;2022-08-21T04:50:52;11.80;11.60;8.00
51320;PMS5003;38732;49.556;6.286;2022-08-21T04:56:20;11.00;9.00;7.00
51320;PMS5003;38732;49.556;6.286;2022-08-21T04:58:55;11.20;8.00;5.00
51320;PMS5003;38732;49.556;6.286;2022-08-21T05:01:27;13.00;13.00;8.00
51320;PMS5003;38732;49.556;6.286;2022-08-21T05:03:58;9.80;8.40;6.00
51320;PMS5003;38732;49.556;6.286;2022-08-21T05:06:28;12.00;9.00;6.20
51320;PMS5003;38732;49.556;6.286;2022-08-21T05:08:59;8.80;8.00;6.00
51320;PMS5003;38732;49.556;6.286;2022-08-21T05:11:29;13.60;7.80;4.00
51320;PMS5003;38732;49.556;6.286;2022-08-21T05:13:59;14.40;12.00;7.80
51320;PMS5003;38732;49.556;6.286;2022-08-21T05:16:27;13.25;11.25;7.00
51320;PMS5003;38732;49.556;6.286;2022-08-21T05:18:55;16.75;12.25;8.75
51320;PMS5003;38732;49.556;6.286;2022-08-21T05:21:24;12.00;10.50;7.00
51320;PMS5003;38732;49.556;6.286;2022-08-21T05:23:52;12.00;12.00;6.75
51320;PMS5003;38732;49.556;6.286;2022-08-21T05:26:20;13.50;13.25;8.25
51320;PMS5003;38732;49.556;6.286;2022-08-21T05:28:48;5.50;5.50;3.25
51320;PMS5003;38732;49.556;6.286;2022-08-21T05:31:17;12.25;11.75;7.50
51320;PMS5003;38732;49.556;6.286;2022-08-21T05:33:45;13.00;13.00;7.50
51320;PMS5003;38732;49.556;6.286;2022-08-21T05:36:14;11.00;11.00;7.00
51320;PMS5003;38732;49.556;6.286;2022-08-21T05:38:42;12.00;9.00;7.75
51320;PMS5003;38732;49.556;6.286;2022-08-21T05:41:10;11.75;11.75;8.25
51320;PMS5003;38732;49.556;6.286;2022-08-21T05:43:39;12.25;10.25;6.50
51320;PMS5003;38732;49.556;6.286;2022-08-21T05:46:07;15.50;13.00;8.00
51320;PMS5003;38732;49.556;6.286;2022-08-21T05:48:36;13.75;11.50;8.00
51320;PMS5003;38732;49.556;6.286;2022-08-21T05:51:12;13.00;13.00;8.75
51320;PMS5003;38732;49.556;6.286;2022-08-21T05:53:42;16.40;15.80;11.00
51320;PMS5003;38732;49.556;6.286;2022-08-21T05:56:11;15.20;13.20;7.00
51320;PMS5003;38732;49.556;6.286;2022-08-21T05:58:40;13.20;12.20;8.20
51320;PMS5003;38732;49.556;6.286;2022-08-21T06:01:10;13.20;13.20;8.80
51320;PMS5003;38732;49.556;6.286;2022-08-21T06:03:39;13.50;11.00;8.50
51320;PMS5003;38732;49.556;6.286;2022-08-21T06:06:08;12.00;12.00;7.60
51320;PMS5003;38732;49.556;6.286;2022-08-21T06:08:37;15.75;13.00;7.00
51320;PMS5003;38732;49.556;6.286;2022-08-21T06:11:05;12.25;12.25;7.25
51320;PMS5003;38732;49.556;6.286;2022-08-21T06:13:34;13.00;12.00;8.00
51320;PMS5003;38732;49.556;6.286;2022-08-21T06:16:11;9.40;8.40;5.40
51320;PMS5003;38732;49.556;6.286;2022-08-21T06:18:43;14.40;10.20;7.80
51320;PMS5003;38732;49.556;6.286;2022-08-21T06:21:12;14.40;13.40;7.80
51320;PMS5003;38732;49.556;6.286;2022-08-21T06:23:41;11.00;11.00;7.00
51320;PMS5003;38732;49.556;6.286;2022-08-21T06:26:11;14.00;14.00;9.50
51320;PMS5003;38732;49.556;6.286;2022-08-21T06:28:41;12.60;11.00;8.20
51320;PMS5003;38732;49.556;6.286;2022-08-21T06:31:11;9.80;9.80;7.20
51320;PMS5003;38732;49.556;6.286;2022-08-21T06:33:45;10.20;9.60;7.40
51320;PMS5003;38732;49.556;6.286;2022-08-21T06:36:14;11.40;11.00;6.80
51320;PMS5003;38732;49.556;6.286;2022-08-21T06:38:43;11.50;11.50;8.00
51320;PMS5003;38732;49.556;6.286;2022-08-21T06:41:11;12.00;11.75;7.75
51320;PMS5003;38732;49.556;6.286;2022-08-21T06:43:39;10.00;9.00;6.50
51320;PMS5003;38732;49.556;6.286;2022-08-21T06:46:08;11.00;11.00;6.25
51320;PMS5003;38732;49.556;6.286;2022-08-21T06:48:36;10.50;9.75;5.50
51320;PMS5003;38732;49.556;6.286;2022-08-21T06:51:04;11.75;8.75;6.00
51320;PMS5003;38732;49.556;6.286;2022-08-21T06:53:33;13.50;10.50;6.00
51320;PMS5003;38732;49.556;6.286;2022-08-21T06:56:02;14.50;8.00;5.00
51320;PMS5003;38732;49.556;6.286;2022-08-21T06:58:30;10.60;10.60;6.20
51320;PMS5003;38732;49.556;6.286;2022-08-21T07:00:59;15.25;12.25;7.50
51320;PMS5003;38732;49.556;6.286;2022-08-21T07:03:32;9.25;8.75;5.25
51320;PMS5003;38732;49.556;6.286;2022-08-21T07:06:03;12.20;11.00;5.40
51320;PMS5003;38732;49.556;6.286;2022-08-21T07:08:32;12.60;10.60;6.80
51320;PMS5003;38732;49.556;6.286;2022-08-21T07:11:02;12.00;11.80;9.00
51320;PMS5003;38732;49.556;6.286;2022-08-21T07:13:34;15.20;11.20;8.60
51320;PMS5003;38732;49.556;6.286;2022-08-21T07:16:03;11.25;9.75;6.00
51320;PMS5003;38732;49.556;6.286;2022-08-21T07:18:31;9.50;7.00;5.00
51320;PMS5003;38732;49.556;6.286;2022-08-21T07:21:03;11.00;10.75;7.00
51320;PMS5003;38732;49.556;6.286;2022-08-21T07:23:34;13.00;11.40;7.40
51320;PMS5003;38732;49.556;6.286;2022-08-21T07:26:06;12.40;11.00;7.00
51320;PMS5003;38732;49.556;6.286;2022-08-21T07:28:35;10.40;8.00;4.00
51320;PMS5003;38732;49.556;6.286;2022-08-21T07:31:03;11.25;11.25;8.50
51320;PMS5003;38732;49.556;6.286;2022-08-21T07:33:33;13.25;12.00;7.50
51320;PMS5003;38732;49.556;6.286;2022-08-21T07:36:02;12.80;11.80;9.40
51320;PMS5003;38732;49.556;6.286;2022-08-21T07:38:31;15.75;11.50;7.50
51320;PMS5003;38732;49.556;6.286;2022-08-21T07:41:00;13.00;11.00;7.00
51320;PMS5003;38732;49.556;6.286;2022-08-21T07:43:29;11.60;10.60;6.20
51320;PMS5003;38732;49.556;6.286;2022-08-21T07:45:57;9.00;9.00;6.00
51320;PMS5003;38732;49.556;6.286;2022-08-21T07:48:25;12.50;11.50;6.25
51320;PMS5003;38732;49.556;6.286;2022-08-21T07:50:54;12.75;11.75;8.25
51320;PMS5003;38732;49.556;6.286;2022-08-21T07:53:22;9.75;9.75;6.50
51320;PMS5003;38732;49.556;6.286;2022-08-21T07:55:50;10.00;10.00;7.00
51320;PMS5003;38732;49.556;6.286;2022-08-21T07:58:19;10.25;9.25;5.75
51320;PMS5003;38732;49.556;6.286;2022-08-21T08:00:47;12.25;9.75;6.75
51320;PMS5003;38732;49.556;6.286;2022-08-21T08:03:15;6.75;6.75;5.50
51320;PMS5003;38732;49.556;6.286;2022-08-21T08:05:43;9.00;9.00;7.00
51320;PMS5003;38732;49.556;6.286;2022-08-21T08:08:12;13.00;11.50;7.25
51320;PMS5003;38732;49.556;6.286;2022-08-21T08:10:40;9.00;9.00;6.00
51320;PMS5003;38732;49.556;6.286;2022-08-21T08:13:09;10.75;10.75;8.00
51320;PMS5003;38732;49.556;6.286;2022-08-21T08:15:37;11.00;11.00;7.00
51320;PMS5003;38732;49.556;6.286;2022-08-21T08:18:06;10.25;9.25;7.25
51320;PMS5003;38732;49.556;6.286;2022-08-21T08:20:34;7.75;7.50;4.50
51320;PMS5003;38732;49.556;6.286;2022-08-21T08:23:02;2.00;2.00;1.00
51320;PMS5003;38732;49.556;6.286;2022-08-21T08:25:30;10.25;10.00;6.25
51320;PMS5003;38732;49.556;6.286;2022-08-21T08:27:59;11.75;10.00;7.75
51320;PMS5003;38732;49.556;6.286;2022-08-21T08:30:27;11.00;10.75;8.25
51320;PMS5003;38732;49.556;6.286;2022-08-21T08:32:55;10.50;10.00;8.25
51320;PMS5003;38732;49.556;6.286;2022-08-21T08:35:24;12.75;9.00;7.25
51320;PMS5003;38732;49.556;6.286;2022-08-21T08:37:53;11.00;9.75;5.25
51320;PMS5003;38732;49.556;6.286;2022-08-21T08:43:04;9.00;6.40;5.00
51320;PMS5003;38732;49.556;6.286;2022-08-21T08:45:34;9.50;6.75;5.00
51320;PMS5003;38732;49.556;6.286;2022-08-21T08:48:08;8.40;8.40;5.60
51320;PMS5003;38732;49.556;6.286;2022-08-21T08:50:45;11.80;8.80;5.80
51320;PMS5003;38732;49.556;6.286;2022-08-21T08:53:17;9.60;8.80;6.00
51320;PMS5003;38732;49.556;6.286;2022-08-21T08:55:50;6.40;6.20;5.00
51320;PMS5003;38732;49.556;6.286;2022-08-21T08:58:26;7.60;7.20;4.80
51320;PMS5003;38732;49.556;6.286;2022-08-21T09:00:57;9.40;9.40;5.80
51320;PMS5003;38732;49.556;6.286;2022-08-21T09:03:27;8.25;5.75;3.50
51320;PMS5003;38732;49.556;6.286;2022-08-21T09:11:54;7.00;7.00;6.00
51320;PMS5003;38732;49.556;6.286;2022-08-21T09:15:28;7.00;7.00;4.60
51320;PMS5003;38732;49.556;6.286;2022-08-21T09:25:49;7.00;7.00;4.00
51320;PMS5003;38732;49.556;6.286;2022-08-21T09:28:22;10.60;9.00;5.00
51320;PMS5003;38732;49.556;6.286;2022-08-21T09:30:50;4.75;4.50;3.00
51320;PMS5003;38732;49.556;6.286;2022-08-21T09:33:23;7.00;4.60;3.40
51320;PMS5003;38732;49.556;6.286;2022-08-21T09:35:52;5.25;5.25;5.00
51320;PMS5003;38732;49.556;6.286;2022-08-21T09:41:07;6.80;6.20;4.60
51320;PMS5003;38732;49.556;6.286;2022-08-21T09:43:37;7.00;6.80;4.00
51320;PMS5003;38732;49.556;6.286;2022-08-21T09:46:19;6.75;5.75;4.50
51320;PMS5003;38732;49.556;6.286;2022-08-21T09:48:50;11.20;8.60;5.60
51320;PMS5003;38732;49.556;6.286;2022-08-21T09:51:22;6.20;6.00;4.00
51320;PMS5003;38732;49.556;6.286;2022-08-21T09:58:57;6.00;6.00;3.40
51320;PMS5003;38732;49.556;6.286;2022-08-21T10:01:26;6.25;6.25;3.00
51320;PMS5003;38732;49.556;6.286;2022-08-21T10:04:04;8.00;7.00;5.00
51320;PMS5003;38732;49.556;6.286;2022-08-21T10:06:35;7.20;7.20;3.00
51320;PMS5003;38732;49.556;6.286;2022-08-21T10:09:08;6.50;6.50;4.50
51320;PMS5003;38732;49.556;6.286;2022-08-21T10:11:39;5.60;5.00;3.00
51320;PMS5003;38732;49.556;6.286;2022-08-21T10:14:20;9.20;7.00;5.80
51320;PMS5003;38732;49.556;6.286;2022-08-21T10:17:07;8.80;6.60;4.20
51320;PMS5003;38732;49.556;6.286;2022-08-21T10:20:11;5.20;5.20;3.00
51320;PMS5003;38732;49.556;6.286;2022-08-21T10:28:34;6.00;6.00;3.00
51320;PMS5003;38732;49.556;6.286;2022-08-21T10:42:24;6.00;5.00;2.80
51320;PMS5003;38732;49.556;6.286;2022-08-21T10:47:44;7.20;6.00;3.20
51320;PMS5003;38732;49.556;6.286;2022-08-21T10:55:35;6.00;6.00;4.00
51320;PMS5003;38732;49.556;6.286;2022-08-21T10:58:12;5.40;5.00;3.20
51320;PMS5003;38732;49.556;6.286;2022-08-21T11:00:48;6.00;3.40;3.20
51320;PMS5003;38732;49.556;6.286;2022-08-21T11:05:52;3.40;3.00;1.40
51320;PMS5003;38732;49.556;6.286;2022-08-21T11:08:31;7.80;7.20;4.40
51320;PMS5003;38732;49.556;6.286;2022-08-21T11:11:10;4.60;4.60;3.40
51320;PMS5003;38732;49.556;6.286;2022-08-21T11:13:54;7.40;5.80;4.40
51320;PMS5003;38732;49.556;6.286;2022-08-21T11:24:49;5.40;5.40;3.60
51320;PMS5003;38732;49.556;6.286;2022-08-21T11:30:13;6.40;6.40;4.00
51320;PMS5003;38732;49.556;6.286;2022-08-21T11:40:34;6.20;5.00;3.00
51320;PMS5003;38732;49.556;6.286;2022-08-21T11:51:51;6.60;4.00;2.80
51320;PMS5003;38732;49.556;6.286;2022-08-21T11:54:31;7.80;6.00;4.20
51320;PMS5003;38732;49.556;6.286;2022-08-21T11:57:12;4.60;4.60;2.00
51320;PMS5003;38732;49.556;6.286;2022-08-21T12:00:05;6.00;5.00;3.00
51320;PMS5003;38732;49.556;6.286;2022-08-21T12:02:45;5.80;5.80;4.00
51320;PMS5003;38732;49.556;6.286;2022-08-21T12:05:31;6.20;6.00;4.80
51320;PMS5003;38732;49.556;6.286;2022-08-21T12:08:12;6.00;6.00;3.80
51320;PMS5003;38732;49.556;6.286;2022-08-21T12:10:46;7.00;5.20;4.20
51320;PMS5003;38732;49.556;6.286;2022-08-21T12:13:28;5.00;4.00;2.20
51320;PMS5003;38732;49.556;6.286;2022-08-21T12:16:05;5.40;4.60;3.60
51320;PMS5003;38732;49.556;6.286;2022-08-21T12:18:42;4.80;2.40;1.40
51320;PMS5003;38732;49.556;6.286;2022-08-21T12:21:22;5.60;4.80;4.00
51320;PMS5003;38732;49.556;6.286;2022-08-21T12:27:29;3.80;3.80;2.80
51320;PMS5003;38732;49.556;6.286;2022-08-21T12:29:49;5.80;4.60;3.40
51320;PMS5003;38732;49.556;6.286;2022-08-21T12:32:27;6.00;6.00;4.60
51320;PMS5003;38732;49.556;6.286;2022-08-21T12:35:01;6.40;5.80;3.60
51320;PMS5003;38732;49.556;6.286;2022-08-21T12:37:59;7.00;6.60;5.00
51320;PMS5003;38732;49.556;6.286;2022-08-21T12:40:49;4.80;4.80;3.40
51320;PMS5003;38732;49.556;6.286;2022-08-21T12:43:35;5.20;5.20;4.00
51320;PMS5003;38732;49.556;6.286;2022-08-21T12:46:19;4.20;4.20;4.00
51320;PMS5003;38732;49.556;6.286;2022-08-21T12:48:57;5.80;5.00;3.60
51320;PMS5003;38732;49.556;6.286;2022-08-21T12:51:55;1.80;1.80;1.00
51320;PMS5003;38732;49.556;6.286;2022-08-21T12:54:36;6.00;6.00;5.20
51320;PMS5003;38732;49.556;6.286;2022-08-21T12:57:06;5.80;5.80;4.00
51320;PMS5003;38732;49.556;6.286;2022-08-21T12:59:37;6.60;6.60;3.80
51320;PMS5003;38732;49.556;6.286;2022-08-21T13:02:19;7.80;6.40;3.40
51320;PMS5003;38732;49.556;6.286;2022-08-21T13:04:51;6.00;5.00;3.40
51320;PMS5003;38732;49.556;6.286;2022-08-21T13:07:28;6.80;6.20;4.60
51320;PMS5003;38732;49.556;6.286;2022-08-21T13:10:04;5.60;5.00;4.00
51320;PMS5003;38732;49.556;6.286;2022-08-21T13:12:41;6.80;4.20;3.20
51320;PMS5003;38732;49.556;6.286;2022-08-21T13:15:10;6.40;6.40;4.00
51320;PMS5003;38732;49.556;6.286;2022-08-21T13:17:41;5.25;5.25;4.00
51320;PMS5003;38732;49.556;6.286;2022-08-21T13:20:19;4.40;4.40;3.20
51320;PMS5003;38732;49.556;6.286;2022-08-21T13:22:52;4.40;4.40;2.80
51320;PMS5003;38732;49.556;6.286;2022-08-21T13:25:21;4.75;4.75;3.50
51320;PMS5003;38732;49.556;6.286;2022-08-21T13:30:26;6.20;5.60;4.60
51320;PMS5003;38732;49.556;6.286;2022-08-21T13:32:58;6.00;4.75;3.00
51320;PMS5003;38732;49.556;6.286;2022-08-21T13:35:30;3.00;3.00;2.60
51320;PMS5003;38732;49.556;6.286;2022-08-21T13:38:04;1.40;1.40;0.20
51320;PMS5003;38732;49.556;6.286;2022-08-21T13:40:44;4.40;4.40;3.00
51320;PMS5003;38732;49.556;6.286;2022-08-21T13:43:17;3.80;3.60;1.40
51320;PMS5003;38732;49.556;6.286;2022-08-21T13:45:50;7.40;6.60;3.60
51320;PMS5003;38732;49.556;6.286;2022-08-21T13:48:21;8.00;6.20;4.40
51320;PMS5003;38732;49.556;6.286;2022-08-21T13:50:52;6.40;5.00;3.00
51320;PMS5003;38732;49.556;6.286;2022-08-21T13:53:22;5.75;3.75;2.75
51320;PMS5003;38732;49.556;6.286;2022-08-21T13:55:56;5.40;5.40;3.60
51320;PMS5003;38732;49.556;6.286;2022-08-21T14:00:56;5.80;4.80;3.60
51320;PMS5003;38732;49.556;6.286;2022-08-21T14:06:17;13.80;10.00;5.40
51320;PMS5003;38732;49.556;6.286;2022-08-21T14:09:03;4.60;3.00;2.00
51320;PMS5003;38732;49.556;6.286;2022-08-21T14:12:03;6.40;6.40;5.00
51320;PMS5003;38732;49.556;6.286;2022-08-21T14:14:42;7.80;5.80;4.80
51320;PMS5003;38732;49.556;6.286;2022-08-21T14:17:25;4.20;3.40;1.40
51320;PMS5003;38732;49.556;6.286;2022-08-21T14:19:56;6.80;6.80;3.80
51320;PMS5003;38732;49.556;6.286;2022-08-21T14:24:59;5.00;4.20;2.00
51320;PMS5003;38732;49.556;6.286;2022-08-21T14:27:37;3.80;3.80;2.60
51320;PMS5003;38732;49.556;6.286;2022-08-21T14:32:49;4.00;2.80;0.60
51320;PMS5003;38732;49.556;6.286;2022-08-21T14:35:18;4.00;4.00;2.75
51320;PMS5003;38732;49.556;6.286;2022-08-21T14:37:47;8.25;5.25;4.25
51320;PMS5003;38732;49.556;6.286;2022-08-21T14:40:17;7.60;6.00;4.00
51320;PMS5003;38732;49.556;6.286;2022-08-21T14:42:46;6.00;6.00;4.00
51320;PMS5003;38732;49.556;6.286;2022-08-21T14:45:16;5.50;4.75;3.50
51320;PMS5003;38732;49.556;6.286;2022-08-21T14:47:53;5.20;4.20;3.20
51320;PMS5003;38732;49.556;6.286;2022-08-21T14:50:22;5.00;5.00;3.00
51320;PMS5003;38732;49.556;6.286;2022-08-21T14:52:51;3.50;3.50;2.75
51320;PMS5003;38732;49.556;6.286;2022-08-21T14:55:19;4.25;4.25;3.50
51320;PMS5003;38732;49.556;6.286;2022-08-21T14:57:48;6.50;6.50;5.00
51320;PMS5003;38732;49.556;6.286;2022-08-21T15:00:19;9.20;6.00;4.00
51320;PMS5003;38732;49.556;6.286;2022-08-21T15:02:50;5.60;5.60;3.20
51320;PMS5003;38732;49.556;6.286;2022-08-21T15:05:18;6.00;6.00;3.60
51320;PMS5003;38732;49.556;6.286;2022-08-21T15:07:47;6.50;6.50;4.00
51320;PMS5003;38732;49.556;6.286;2022-08-21T15:10:15;6.75;6.00;5.00
51320;PMS5003;38732;49.556;6.286;2022-08-21T15:12:43;7.00;7.00;4.75
51320;PMS5003;38732;49.556;6.286;2022-08-21T15:15:12;4.75;4.75;3.25
51320;PMS5003;38732;49.556;6.286;2022-08-21T15:17:40;9.25;5.50;4.00
51320;PMS5003;38732;49.556;6.286;2022-08-21T15:20:09;6.00;5.00;3.75
51320;PMS5003;38732;49.556;6.286;2022-08-21T15:22:37;7.60;6.20;4.00
51320;PMS5003;38732;49.556;6.286;2022-08-21T15:25:06;6.50;5.00;4.00
51320;PMS5003;38732;49.556;6.286;2022-08-21T15:27:34;7.50;7.25;4.25
51320;PMS5003;38732;49.556;6.286;2022-08-21T15:30:03;7.00;7.00;5.00
51320;PMS5003;38732;49.556;6.286;2022-08-21T15:32:32;7.00;6.60;4.00
51320;PMS5003;38732;49.556;6.286;2022-08-21T15:35:00;5.50;5.50;4.00
51320;PMS5003;38732;49.556;6.286;2022-08-21T15:37:29;6.75;6.75;4.00
51320;PMS5003;38732;49.556;6.286;2022-08-21T15:39:57;7.75;5.00;4.25
51320;PMS5003;38732;49.556;6.286;2022-08-21T15:42:26;7.25;6.75;4.00
51320;PMS5003;38732;49.556;6.286;2022-08-21T15:44:55;4.60;4.40;3.00
51320;PMS5003;38732;49.556;6.286;2022-08-21T15:47:26;6.60;6.00;4.00
51320;PMS5003;38732;49.556;6.286;2022-08-21T15:49:57;5.00;5.00;4.00
51320;PMS5003;38732;49.556;6.286;2022-08-21T15:52:25;8.00;5.25;3.00
51320;PMS5003;38732;49.556;6.286;2022-08-21T15:54:54;8.00;7.25;4.25
51320;PMS5003;38732;49.556;6.286;2022-08-21T15:57:22;5.25;5.25;3.00
51320;PMS5003;38732;49.556;6.286;2022-08-21T15:59:56;7.20;6.60;5.40
51320;PMS5003;38732;49.556;6.286;2022-08-21T16:02:29;4.20;3.00;1.00
51320;PMS5003;38732;49.556;6.286;2022-08-21T16:04:59;6.40;6.20;5.00
51320;PMS5003;38732;49.556;6.286;2022-08-21T16:07:27;5.75;5.75;3.00
51320;PMS5003;38732;49.556;6.286;2022-08-21T16:09:56;6.50;4.50;3.50
51320;PMS5003;38732;49.556;6.286;2022-08-21T16:12:25;8.00;8.00;5.25
51320;PMS5003;38732;49.556;6.286;2022-08-21T16:14:57;3.00;3.00;2.00
51320;PMS5003;38732;49.556;6.286;2022-08-21T16:17:28;5.60;5.60;4.80
51320;PMS5003;38732;49.556;6.286;2022-08-21T16:19:59;4.20;4.20;2.40